Time,TemperatureF,DewpointF,PressureIn,WindDirection,WindDirectionDegrees,WindSpeedMPH,WindSpeedGustMPH,Humidity,HourlyPrecipIn,Conditions,Clouds,dailyrainin,SoftwareType,DateUTC
2013-06-25 00:00:00,68.4,68.4,30.23,ESE,121,0.0,0.0,100,0.00,,,0.00,Wunderground v.1.15,2013-06-25 04:00:00,
2013-06-25 00:01:00,68.4,68.4,30.23,ESE,121,0.0,0.0,100,0.00,,,0.00,Wunderground v.1.15,2013-06-25 04:01:00,
2013-06-25 00:06:00,68.3,68.3,30.23,ESE,121,0.0,0.0,100,0.00,,,0.00,Wunderground v.1.15,2013-06-25 04:06:00,
2013-06-25 00:11:00,68.3,68.3,30.23,ESE,121,0.0,0.0,100,0.00,,,0.00,Wunderground v.1.15,2013-06-25 04:11:00,
2013-06-25 00:16:00,68.2,68.2,30.22,ESE,121,0.0,0.0,100,0.00,,,0.00,Wunderground v.1.15,2013-06-25 04:16:00,
2013-06-25 00:21:00,68.2,68.2,30.22,ESE,121,0.0,0.0,100,0.00,,,0.00,Wunderground v.1.15,2013-06-25 04:21:00,
2013-06-25 00:26:00,68.1,68.1,30.23,ESE,121,0.0,0.0,100,0.00,,,0.00,Wunderground v.1.15,2013-06-25 04:26:00,
2013-06-25 00:31:00,68.1,68.1,30.23,ESE,121,0.0,0.0,100,0.00,,,0.00,Wunderground v.1.15,2013-06-25 04:31:00,
2013-06-25 00:36:00,68.0,68.0,30.23,ESE,121,0.0,0.0,100,0.00,,,0.00,Wunderground v.1.15,2013-06-25 04:36:00,
2013-06-25 00:41:00,67.9,67.9,30.23,ESE,121,0.0,0.0,100,0.00,,,0.00,Wunderground v.1.15,2013-06-25 04:41:00,
2013-06-25 00:46:00,67.9,67.9,30.23,ESE,121,0.0,0.0,100,0.00,,,0.00,Wunderground v.1.15,2013-06-25 04:46:00,
2013-06-25 00:51:00,67.8,67.8,30.23,ESE,121,0.0,0.0,100,0.00,,,0.00,Wunderground v.1.15,2013-06-25 04:51:00,
2013-06-25 00:56:00,67.6,67.6,30.23,ESE,121,0.0,0.0,100,0.00,,,0.00,Wunderground v.1.15,2013-06-25 04:56:00,
2013-06-25 01:01:00,67.5,67.5,30.23,ESE,121,0.0,0.0,100,0.00,,,0.00,Wunderground v.1.15,2013-06-25 05:01:00,
2013-06-25 01:06:00,67.4,67.4,30.23,ESE,121,0.0,0.0,100,0.00,,,0.00,Wunderground v.1.15,2013-06-25 05:06:00,
2013-06-25 01:11:00,67.3,67.3,30.22,ESE,121,0.0,0.0,100,0.00,,,0.00,Wunderground v.1.15,2013-06-25 05:11:00,
2013-06-25 01:16:00,67.2,67.2,30.23,ESE,121,0.0,0.0,100,0.00,,,0.00,Wunderground v.1.15,2013-06-25 05:16:00,
2013-06-25 01:21:00,67.1,67.1,30.23,ESE,121,0.0,0.0,100,0.00,,,0.00,Wunderground v.1.15,2013-06-25 05:21:00,
2013-06-25 01:26:00,67.0,67.0,30.23,ESE,121,0.0,0.0,100,0.00,,,0.00,Wunderground v.1.15,2013-06-25 05:26:00,
2013-06-25 01:31:00,67.0,67.0,30.22,ESE,121,0.0,0.0,100,0.00,,,0.00,Wunderground v.1.15,2013-06-25 05:31:00,
2013-06-25 01:36:00,66.9,66.9,30.22,ESE,121,0.0,0.0,100,0.00,,,0.00,Wunderground v.1.15,2013-06-25 05:36:00,
2013-06-25 01:41:00,66.8,66.8,30.22,ESE,121,0.0,0.0,100,0.00,,,0.00,Wunderground v.1.15,2013-06-25 05:41:00,
2013-06-25 01:46:00,66.7,66.7,30.22,ESE,121,0.0,0.0,100,0.00,,,0.00,Wunderground v.1.15,2013-06-25 05:46:00,
2013-06-25 01:51:00,66.6,66.6,30.22,ESE,121,0.0,0.0,100,0.00,,,0.00,Wunderground v.1.15,2013-06-25 05:51:00,
2013-06-25 01:56:00,66.5,66.5,30.22,ESE,121,0.0,0.0,100,0.00,,,0.00,Wunderground v.1.15,2013-06-25 05:56:00,
2013-06-25 02:01:00,66.4,66.4,30.22,ESE,121,0.0,0.0,100,0.00,,,0.00,Wunderground v.1.15,2013-06-25 06:01:00,
2013-06-25 02:06:00,66.3,66.3,30.22,ESE,121,0.0,0.0,100,0.00,,,0.00,Wunderground v.1.15,2013-06-25 06:06:00,
2013-06-25 02:11:00,66.1,66.1,30.22,ESE,121,0.0,0.0,100,0.00,,,0.00,Wunderground v.1.15,2013-06-25 06:11:00,
2013-06-25 02:16:00,66.1,66.1,30.22,ESE,121,0.0,0.0,100,0.00,,,0.00,Wunderground v.1.15,2013-06-25 06:16:00,
2013-06-25 02:21:00,66.0,66.0,30.22,ESE,121,0.0,0.0,100,0.00,,,0.00,Wunderground v.1.15,2013-06-25 06:21:00,
2013-06-25 02:26:00,66.0,66.0,30.21,ESE,121,0.0,0.0,100,0.00,,,0.00,Wunderground v.1.15,2013-06-25 06:26:00,
2013-06-25 02:31:00,65.9,65.9,30.21,ESE,121,0.0,0.0,100,0.00,,,0.00,Wunderground v.1.15,2013-06-25 06:31:00,
2013-06-25 02:36:00,65.8,65.8,30.21,ESE,121,0.0,0.0,100,0.00,,,0.00,Wunderground v.1.15,2013-06-25 06:36:00,
2013-06-25 02:41:00,65.7,65.7,30.21,ESE,121,0.0,0.0,100,0.00,,,0.00,Wunderground v.1.15,2013-06-25 06:41:00,
2013-06-25 02:46:00,65.6,65.6,30.21,ESE,121,0.0,0.0,100,0.00,,,0.00,Wunderground v.1.15,2013-06-25 06:46:00,
2013-06-25 02:51:00,65.5,65.5,30.21,ESE,121,0.0,0.0,100,0.00,,,0.00,Wunderground v.1.15,2013-06-25 06:51:00,
2013-06-25 02:56:00,65.5,65.5,30.21,ESE,121,0.0,0.0,100,0.00,,,0.00,Wunderground v.1.15,2013-06-25 06:56:00,
2013-06-25 03:01:00,65.4,65.4,30.21,ESE,121,0.0,0.0,100,0.00,,,0.00,Wunderground v.1.15,2013-06-25 07:01:00,
2013-06-25 03:06:00,65.3,65.3,30.20,ESE,121,0.0,0.0,100,0.00,,,0.00,Wunderground v.1.15,2013-06-25 07:06:00,
2013-06-25 03:11:00,65.2,65.2,30.20,ESE,121,0.0,0.0,100,0.00,,,0.00,Wunderground v.1.15,2013-06-25 07:11:00,
2013-06-25 03:16:00,65.1,65.1,30.20,ESE,121,0.0,0.0,100,0.00,,,0.00,Wunderground v.1.15,2013-06-25 07:16:00,
2013-06-25 03:21:00,65.0,65.0,30.20,ESE,121,0.0,0.0,100,0.00,,,0.00,Wunderground v.1.15,2013-06-25 07:21:00,
2013-06-25 03:26:00,65.0,65.0,30.20,ESE,121,0.0,0.0,100,0.00,,,0.00,Wunderground v.1.15,2013-06-25 07:26:00,
2013-06-25 03:31:00,65.0,65.0,30.20,ESE,121,0.0,0.0,100,0.00,,,0.00,Wunderground v.1.15,2013-06-25 07:31:00,
2013-06-25 03:36:00,64.9,64.9,30.20,ESE,121,0.0,1.0,100,0.00,,,0.00,Wunderground v.1.15,2013-06-25 07:36:00,
2013-06-25 03:41:00,64.8,64.8,30.19,ESE,121,0.0,0.0,100,0.00,,,0.00,Wunderground v.1.15,2013-06-25 07:41:00,
2013-06-25 03:46:00,64.7,64.7,30.19,ESE,121,0.0,0.0,100,0.00,,,0.00,Wunderground v.1.15,2013-06-25 07:46:00,
2013-06-25 03:51:00,64.6,64.6,30.19,ESE,121,0.0,0.0,100,0.00,,,0.00,Wunderground v.1.15,2013-06-25 07:51:00,
2013-06-25 03:56:00,64.7,64.7,30.20,ESE,121,0.0,0.0,100,0.00,,,0.00,Wunderground v.1.15,2013-06-25 07:56:00,
2013-06-25 04:01:00,64.7,64.7,30.20,ESE,121,0.0,0.0,100,0.00,,,0.00,Wunderground v.1.15,2013-06-25 08:01:00,
2013-06-25 04:06:00,64.7,64.7,30.20,ESE,121,0.0,0.0,100,0.00,,,0.00,Wunderground v.1.15,2013-06-25 08:06:00,
2013-06-25 04:11:00,64.6,64.6,30.20,ESE,121,0.0,0.0,100,0.00,,,0.00,Wunderground v.1.15,2013-06-25 08:11:00,
2013-06-25 04:16:00,64.6,64.6,30.19,ESE,121,0.0,0.0,100,0.00,,,0.00,Wunderground v.1.15,2013-06-25 08:16:00,
2013-06-25 04:21:00,64.6,64.6,30.20,ESE,121,0.0,0.0,100,0.00,,,0.00,Wunderground v.1.15,2013-06-25 08:21:00,
2013-06-25 04:26:00,64.6,64.6,30.20,ESE,121,0.0,0.0,100,0.00,,,0.00,Wunderground v.1.15,2013-06-25 08:26:00,
2013-06-25 04:31:00,64.6,64.6,30.20,ESE,121,0.0,0.0,100,0.00,,,0.00,Wunderground v.1.15,2013-06-25 08:31:00,
2013-06-25 04:36:00,64.6,64.6,30.20,ESE,121,0.0,0.0,100,0.00,,,0.00,Wunderground v.1.15,2013-06-25 08:36:00,
2013-06-25 04:41:00,64.6,64.6,30.20,ESE,121,0.0,0.0,100,0.00,,,0.00,Wunderground v.1.15,2013-06-25 08:41:00,
2013-06-25 04:46:00,64.6,64.6,30.20,ESE,121,0.0,0.0,100,0.00,,,0.00,Wunderground v.1.15,2013-06-25 08:46:00,
2013-06-25 04:51:00,64.5,64.5,30.20,ESE,121,0.0,0.0,100,0.00,,,0.00,Wunderground v.1.15,2013-06-25 08:51:00,
2013-06-25 04:57:00,64.5,64.5,30.20,ESE,121,0.0,0.0,100,0.00,,,0.00,Wunderground v.1.15,2013-06-25 08:57:00,
2013-06-25 05:02:00,64.4,64.4,30.19,ESE,121,0.0,0.0,100,0.00,,,0.00,Wunderground v.1.15,2013-06-25 09:02:00,
2013-06-25 05:07:00,64.3,64.3,30.19,ESE,121,0.0,1.0,100,0.00,,,0.00,Wunderground v.1.15,2013-06-25 09:07:00,
2013-06-25 05:12:00,64.2,64.2,30.20,ESE,121,0.0,0.0,100,0.00,,,0.00,Wunderground v.1.15,2013-06-25 09:12:00,
2013-06-25 05:17:00,64.1,64.1,30.20,ESE,121,0.0,0.0,100,0.00,,,0.00,Wunderground v.1.15,2013-06-25 09:17:00,
2013-06-25 05:22:00,64.0,64.0,30.20,ESE,121,0.0,0.0,100,0.00,,,0.00,Wunderground v.1.15,2013-06-25 09:22:00,
2013-06-25 05:27:00,63.9,63.9,30.20,ESE,121,0.0,0.0,100,0.00,,,0.00,Wunderground v.1.15,2013-06-25 09:27:00,
2013-06-25 05:32:00,63.9,63.9,30.20,ESE,121,0.0,0.0,100,0.00,,,0.00,Wunderground v.1.15,2013-06-25 09:32:00,
2013-06-25 05:37:00,63.8,63.8,30.20,ESE,121,0.0,0.0,100,0.00,,,0.00,Wunderground v.1.15,2013-06-25 09:37:00,
2013-06-25 05:42:00,63.8,63.8,30.20,ESE,121,0.0,0.0,100,0.00,,,0.00,Wunderground v.1.15,2013-06-25 09:42:00,
2013-06-25 05:47:00,63.9,63.9,30.20,ESE,121,0.0,0.0,100,0.00,,,0.00,Wunderground v.1.15,2013-06-25 09:47:00,
2013-06-25 05:52:00,64.1,64.1,30.20,ESE,121,0.0,0.0,100,0.00,,,0.00,Wunderground v.1.15,2013-06-25 09:52:00,
2013-06-25 05:57:00,64.1,64.1,30.20,ESE,121,0.0,0.0,100,0.00,,,0.00,Wunderground v.1.15,2013-06-25 09:57:00,
2013-06-25 06:02:00,64.1,64.1,30.21,ESE,121,0.0,0.0,100,0.00,,,0.00,Wunderground v.1.15,2013-06-25 10:02:00,
2013-06-25 06:07:00,64.1,64.1,30.20,ESE,121,0.0,0.0,100,0.00,,,0.00,Wunderground v.1.15,2013-06-25 10:07:00,
2013-06-25 06:12:00,64.1,64.1,30.21,ESE,121,0.0,0.0,100,0.00,,,0.00,Wunderground v.1.15,2013-06-25 10:12:00,
2013-06-25 06:17:00,64.1,64.1,30.20,ESE,121,0.0,0.0,100,0.00,,,0.00,Wunderground v.1.15,2013-06-25 10:17:00,
2013-06-25 06:22:00,64.1,64.1,30.21,ESE,121,0.0,0.0,100,0.00,,,0.00,Wunderground v.1.15,2013-06-25 10:22:00,
2013-06-25 06:27:00,63.9,63.9,30.21,ESE,121,0.0,0.0,100,0.00,,,0.00,Wunderground v.1.15,2013-06-25 10:27:00,
2013-06-25 06:32:00,63.9,63.9,30.21,ESE,121,0.0,0.0,100,0.00,,,0.00,Wunderground v.1.15,2013-06-25 10:32:00,
2013-06-25 06:37:00,63.8,63.8,30.22,ESE,121,0.0,0.0,100,0.00,,,0.00,Wunderground v.1.15,2013-06-25 10:37:00,
2013-06-25 06:42:00,63.9,63.9,30.22,ESE,121,0.0,0.0,100,0.00,,,0.00,Wunderground v.1.15,2013-06-25 10:42:00,
2013-06-25 06:47:00,64.0,64.0,30.22,ESE,121,0.0,1.0,100,0.00,,,0.00,Wunderground v.1.15,2013-06-25 10:47:00,
2013-06-25 06:52:00,64.2,64.2,30.22,ESE,121,0.0,1.0,100,0.00,,,0.00,Wunderground v.1.15,2013-06-25 10:52:00,
2013-06-25 06:57:00,64.4,64.4,30.22,ESE,121,0.0,2.0,100,0.00,,,0.00,Wunderground v.1.15,2013-06-25 10:57:00,
2013-06-25 07:02:00,64.6,64.6,30.22,ESE,121,0.0,0.0,100,0.00,,,0.00,Wunderground v.1.15,2013-06-25 11:02:00,
2013-06-25 07:07:00,64.7,64.7,30.22,ESE,121,0.0,0.0,100,0.00,,,0.00,Wunderground v.1.15,2013-06-25 11:07:00,
2013-06-25 07:12:00,64.8,64.8,30.22,ESE,121,0.0,0.0,100,0.00,,,0.00,Wunderground v.1.15,2013-06-25 11:12:00,
2013-06-25 07:17:00,64.9,64.9,30.23,ESE,121,0.0,0.0,100,0.00,,,0.00,Wunderground v.1.15,2013-06-25 11:17:00,
2013-06-25 07:22:00,65.0,65.0,30.23,ESE,121,0.0,0.0,100,0.00,,,0.00,Wunderground v.1.15,2013-06-25 11:22:00,
2013-06-25 07:27:00,65.1,65.1,30.23,ESE,121,0.0,0.0,100,0.00,,,0.00,Wunderground v.1.15,2013-06-25 11:27:00,
2013-06-25 07:32:00,65.2,65.2,30.23,ESE,121,0.0,0.0,100,0.00,,,0.00,Wunderground v.1.15,2013-06-25 11:32:00,
2013-06-25 07:37:00,65.3,65.3,30.23,ESE,121,0.0,0.0,100,0.00,,,0.00,Wunderground v.1.15,2013-06-25 11:37:00,
2013-06-25 07:42:00,65.5,65.5,30.23,ESE,121,0.0,0.0,100,0.00,,,0.00,Wunderground v.1.15,2013-06-25 11:42:00,
2013-06-25 07:47:00,65.6,65.6,30.23,ESE,121,0.0,0.0,100,0.00,,,0.00,Wunderground v.1.15,2013-06-25 11:47:00,
2013-06-25 07:52:00,65.7,65.7,30.23,ESE,121,0.0,0.0,100,0.00,,,0.00,Wunderground v.1.15,2013-06-25 11:52:00,
2013-06-25 07:57:00,65.8,65.8,30.23,ESE,121,0.0,0.0,100,0.00,,,0.00,Wunderground v.1.15,2013-06-25 11:57:00,
2013-06-25 08:02:00,65.8,65.8,30.23,ESE,121,0.0,0.0,100,0.00,,,0.00,Wunderground v.1.15,2013-06-25 12:02:00,
2013-06-25 08:07:00,65.8,65.8,30.23,ESE,121,0.0,0.0,100,0.00,,,0.00,Wunderground v.1.15,2013-06-25 12:07:00,
2013-06-25 08:12:00,65.8,65.8,30.23,ESE,121,0.0,0.0,100,0.00,,,0.00,Wunderground v.1.15,2013-06-25 12:12:00,
2013-06-25 08:17:00,65.9,65.9,30.23,ESE,121,0.0,0.0,100,0.00,,,0.00,Wunderground v.1.15,2013-06-25 12:17:00,
2013-06-25 08:22:00,66.0,66.0,30.23,ESE,121,0.0,0.0,100,0.00,,,0.00,Wunderground v.1.15,2013-06-25 12:22:00,
2013-06-25 08:27:00,66.1,66.1,30.23,ESE,121,0.0,0.0,100,0.00,,,0.00,Wunderground v.1.15,2013-06-25 12:27:00,
2013-06-25 08:32:00,66.3,66.3,30.23,ESE,121,0.0,0.0,100,0.00,,,0.00,Wunderground v.1.15,2013-06-25 12:32:00,
2013-06-25 08:37:00,66.3,66.3,30.23,ESE,121,0.0,0.0,100,0.00,,,0.00,Wunderground v.1.15,2013-06-25 12:37:00,
2013-06-25 08:42:00,66.5,66.5,30.23,ESE,121,0.0,0.0,100,0.00,,,0.00,Wunderground v.1.15,2013-06-25 12:42:00,
2013-06-25 08:47:00,66.6,66.6,30.23,ESE,121,0.0,0.0,100,0.00,,,0.00,Wunderground v.1.15,2013-06-25 12:47:00,
2013-06-25 08:52:00,66.8,66.8,30.22,ESE,121,0.0,0.0,100,0.00,,,0.00,Wunderground v.1.15,2013-06-25 12:52:00,
2013-06-25 08:57:00,66.8,66.8,30.22,ESE,121,0.0,0.0,100,0.00,,,0.00,Wunderground v.1.15,2013-06-25 12:57:00,
2013-06-25 09:02:00,66.8,66.8,30.23,ESE,121,0.0,0.0,100,0.00,,,0.00,Wunderground v.1.15,2013-06-25 13:02:00,
2013-06-25 09:07:00,67.0,67.0,30.23,ESE,121,0.0,0.0,100,0.00,,,0.00,Wunderground v.1.15,2013-06-25 13:07:00,
2013-06-25 09:12:00,67.1,67.1,30.23,ESE,121,0.0,0.0,100,0.00,,,0.00,Wunderground v.1.15,2013-06-25 13:12:00,
2013-06-25 09:17:00,67.3,67.3,30.23,ESE,121,0.0,0.0,100,0.00,,,0.00,Wunderground v.1.15,2013-06-25 13:17:00,
2013-06-25 09:22:00,67.6,67.6,30.24,ESE,121,0.0,0.0,100,0.00,,,0.00,Wunderground v.1.15,2013-06-25 13:22:00,
2013-06-25 09:27:00,67.9,67.9,30.24,ESE,121,0.0,0.0,100,0.00,,,0.00,Wunderground v.1.15,2013-06-25 13:27:00,
2013-06-25 09:32:00,68.3,68.3,30.23,ESE,121,0.0,0.0,100,0.00,,,0.00,Wunderground v.1.15,2013-06-25 13:32:00,
2013-06-25 09:37:00,68.8,68.8,30.24,ESE,121,0.0,0.0,100,0.00,,,0.00,Wunderground v.1.15,2013-06-25 13:37:00,
2013-06-25 09:42:00,69.0,69.0,30.24,ESE,121,0.0,0.0,100,0.00,,,0.00,Wunderground v.1.15,2013-06-25 13:42:00,
2013-06-25 09:47:00,69.2,69.2,30.24,ESE,121,0.0,0.0,100,0.00,,,0.00,Wunderground v.1.15,2013-06-25 13:47:00,
2013-06-25 09:52:00,69.5,69.5,30.23,ESE,121,0.0,0.0,100,0.00,,,0.00,Wunderground v.1.15,2013-06-25 13:52:00,
2013-06-25 09:57:00,69.8,69.8,30.23,ESE,121,0.0,0.0,100,0.00,,,0.00,Wunderground v.1.15,2013-06-25 13:57:00,
2013-06-25 10:02:00,70.2,70.2,30.23,ESE,121,0.0,0.0,100,0.00,,,0.00,Wunderground v.1.15,2013-06-25 14:02:00,
2013-06-25 10:07:00,70.7,70.4,30.23,ESE,121,0.0,0.0,99,0.00,,,0.00,Wunderground v.1.15,2013-06-25 14:07:00,
2013-06-25 10:12:00,71.1,71.1,30.22,ESE,121,0.0,0.0,100,0.00,,,0.00,Wunderground v.1.15,2013-06-25 14:12:00,
2013-06-25 10:17:00,71.5,71.2,30.22,ESE,121,0.0,0.0,99,0.00,,,0.00,Wunderground v.1.15,2013-06-25 14:17:00,
2013-06-25 10:22:00,72.0,71.4,30.22,ESE,121,0.0,0.0,98,0.00,,,0.00,Wunderground v.1.15,2013-06-25 14:22:00,
2013-06-25 10:27:00,72.5,71.9,30.22,ESE,121,0.0,0.0,98,0.00,,,0.00,Wunderground v.1.15,2013-06-25 14:27:00,
2013-06-25 10:32:00,73.0,71.5,30.22,ESE,121,0.0,0.0,95,0.00,,,0.00,Wunderground v.1.15,2013-06-25 14:32:00,
2013-06-25 10:37:00,73.6,71.4,30.22,ESE,121,0.0,0.0,93,0.00,,,0.00,Wunderground v.1.15,2013-06-25 14:37:00,
2013-06-25 10:42:00,74.0,71.8,30.22,ESE,121,0.0,0.0,93,0.00,,,0.00,Wunderground v.1.15,2013-06-25 14:42:00,
2013-06-25 10:47:00,74.3,71.5,30.22,ESE,121,0.0,0.0,91,0.00,,,0.00,Wunderground v.1.15,2013-06-25 14:47:00,
2013-06-25 10:52:00,74.5,71.0,30.21,ESE,121,0.0,0.0,89,0.00,,,0.00,Wunderground v.1.15,2013-06-25 14:52:00,
2013-06-25 10:57:00,74.7,71.6,30.22,ESE,121,0.0,0.0,90,0.00,,,0.00,Wunderground v.1.15,2013-06-25 14:57:00,
2013-06-25 11:02:00,74.9,71.1,30.22,ESE,121,0.0,0.0,88,0.00,,,0.00,Wunderground v.1.15,2013-06-25 15:02:00,
2013-06-25 11:07:00,75.3,72.2,30.21,ESE,121,0.0,0.0,90,0.00,,,0.00,Wunderground v.1.15,2013-06-25 15:07:00,
2013-06-25 11:12:00,75.8,72.0,30.21,ESE,121,0.0,0.0,88,0.00,,,0.00,Wunderground v.1.15,2013-06-25 15:12:00,
2013-06-25 11:17:00,76.0,71.8,30.21,ESE,121,0.0,0.0,87,0.00,,,0.00,Wunderground v.1.15,2013-06-25 15:17:00,
2013-06-25 11:22:00,76.4,71.9,30.21,ESE,121,0.0,0.0,86,0.00,,,0.00,Wunderground v.1.15,2013-06-25 15:22:00,
2013-06-25 11:27:00,76.7,71.8,30.21,ESE,121,0.0,0.0,85,0.00,,,0.00,Wunderground v.1.15,2013-06-25 15:27:00,
2013-06-25 11:32:00,76.9,71.0,30.21,East,80,0.0,1.0,82,0.00,,,0.00,Wunderground v.1.15,2013-06-25 15:32:00,
2013-06-25 11:37:00,77.4,72.5,30.21,East,80,0.0,1.0,85,0.00,,,0.00,Wunderground v.1.15,2013-06-25 15:37:00,
2013-06-25 11:42:00,78.0,72.4,30.21,North,360,0.0,1.0,83,0.00,,,0.00,Wunderground v.1.15,2013-06-25 15:42:00,
2013-06-25 11:47:00,78.3,72.7,30.21,North,360,0.0,1.0,83,0.00,,,0.00,Wunderground v.1.15,2013-06-25 15:47:00,
2013-06-25 11:52:00,78.4,71.7,30.21,North,360,0.0,0.0,80,0.00,,,0.00,Wunderground v.1.15,2013-06-25 15:52:00,
2013-06-25 11:57:00,78.6,71.5,30.21,North,360,0.0,1.0,79,0.00,,,0.00,Wunderground v.1.15,2013-06-25 15:57:00,
2013-06-25 12:02:00,78.8,71.7,30.21,North,355,2.0,3.0,79,0.00,,,0.00,Wunderground v.1.15,2013-06-25 16:02:00,
2013-06-25 12:07:00,79.1,71.3,30.21,North,360,0.0,3.0,77,0.00,,,0.00,Wunderground v.1.15,2013-06-25 16:07:00,
2013-06-25 12:12:00,79.5,71.7,30.21,North,360,0.0,1.0,77,0.00,,,0.00,Wunderground v.1.15,2013-06-25 16:12:00,
2013-06-25 12:17:00,80.0,71.8,30.20,North,9,0.0,3.0,76,0.00,,,0.00,Wunderground v.1.15,2013-06-25 16:17:00,
2013-06-25 12:22:00,80.5,73.0,30.20,NNE,14,0.0,1.0,78,0.00,,,0.00,Wunderground v.1.15,2013-06-25 16:22:00,
2013-06-25 12:27:00,81.1,72.4,30.20,NNE,14,1.0,2.0,75,0.00,,,0.00,Wunderground v.1.15,2013-06-25 16:27:00,
2013-06-25 12:32:00,81.7,73.0,30.20,ESE,108,0.0,2.0,75,0.00,,,0.00,Wunderground v.1.15,2013-06-25 16:32:00,
2013-06-25 12:37:00,82.2,72.7,30.20,North,360,0.0,3.0,73,0.00,,,0.00,Wunderground v.1.15,2013-06-25 16:37:00,
2013-06-25 12:42:00,82.1,71.8,30.20,North,360,0.0,1.0,71,0.00,,,0.00,Wunderground v.1.15,2013-06-25 16:42:00,
2013-06-25 12:47:00,81.5,72.8,30.20,North,360,0.0,1.0,75,0.00,,,0.00,Wunderground v.1.15,2013-06-25 16:47:00,
2013-06-25 12:52:00,80.7,72.0,30.20,North,360,0.0,0.0,75,0.00,,,0.00,Wunderground v.1.15,2013-06-25 16:52:00,
2013-06-25 12:57:00,80.2,72.3,30.19,North,360,0.0,0.0,77,0.00,,,0.00,Wunderground v.1.15,2013-06-25 16:57:00,
2013-06-25 13:02:00,80.0,72.5,30.19,North,360,0.0,0.0,78,0.00,,,0.00,Wunderground v.1.15,2013-06-25 17:02:00,
2013-06-25 13:07:00,79.7,72.2,30.19,North,360,0.0,0.0,78,0.00,,,0.00,Wunderground v.1.15,2013-06-25 17:07:00,
2013-06-25 13:12:00,79.3,72.6,30.19,North,360,0.0,0.0,80,0.00,,,0.00,Wunderground v.1.15,2013-06-25 17:12:00,
2013-06-25 13:17:00,78.9,72.2,30.19,North,360,0.0,1.0,80,0.00,,,0.00,Wunderground v.1.15,2013-06-25 17:17:00,
2013-06-25 13:22:00,78.5,72.5,30.18,North,360,1.0,1.0,82,0.00,,,0.00,Wunderground v.1.15,2013-06-25 17:22:00,
2013-06-25 13:27:00,77.9,71.6,30.18,North,360,0.0,1.0,81,0.00,,,0.00,Wunderground v.1.15,2013-06-25 17:27:00,
2013-06-25 13:32:00,77.3,71.4,30.18,North,360,0.0,1.0,82,0.00,,,0.00,Wunderground v.1.15,2013-06-25 17:32:00,
2013-06-25 13:37:00,76.9,71.7,30.17,North,360,0.0,1.0,84,0.00,,,0.00,Wunderground v.1.15,2013-06-25 17:37:00,
2013-06-25 13:42:00,76.9,71.7,30.17,North,360,0.0,0.0,84,0.00,,,0.00,Wunderground v.1.15,2013-06-25 17:42:00,
2013-06-25 13:47:00,77.5,72.6,30.17,North,360,0.0,0.0,85,0.00,,,0.00,Wunderground v.1.15,2013-06-25 17:47:00,
2013-06-25 13:52:00,78.0,72.1,30.17,North,360,0.0,0.0,82,0.00,,,0.00,Wunderground v.1.15,2013-06-25 17:52:00,
2013-06-25 13:57:00,78.5,72.9,30.17,North,360,0.0,2.0,83,0.00,,,0.00,Wunderground v.1.15,2013-06-25 17:57:00,
2013-06-25 14:02:00,78.9,72.6,30.17,North,360,0.0,0.0,81,0.00,,,0.00,Wunderground v.1.15,2013-06-25 18:02:00,
2013-06-25 14:07:00,79.1,72.4,30.16,North,360,0.0,1.0,80,0.00,,,0.00,Wunderground v.1.15,2013-06-25 18:07:00,
2013-06-25 14:12:00,79.4,72.3,30.16,North,360,1.0,1.0,79,0.00,,,0.00,Wunderground v.1.15,2013-06-25 18:12:00,
2013-06-25 14:17:00,79.7,72.2,30.15,North,360,0.0,1.0,78,0.00,,,0.00,Wunderground v.1.15,2013-06-25 18:17:00,
2013-06-25 14:22:00,79.9,72.4,30.15,North,360,0.0,1.0,78,0.00,,,0.00,Wunderground v.1.15,2013-06-25 18:22:00,
2013-06-25 14:27:00,80.2,72.7,30.15,North,360,0.0,1.0,78,0.00,,,0.00,Wunderground v.1.15,2013-06-25 18:27:00,
2013-06-25 14:32:00,80.7,72.4,30.15,SSE,150,1.0,3.0,76,0.00,,,0.00,Wunderground v.1.15,2013-06-25 18:32:00,
2013-06-25 14:37:00,81.0,73.1,30.15,SSE,166,0.0,4.0,77,0.00,,,0.00,Wunderground v.1.15,2013-06-25 18:37:00,
2013-06-25 14:42:00,81.1,74.0,30.15,SSE,166,0.0,1.0,79,0.00,,,0.00,Wunderground v.1.15,2013-06-25 18:42:00,
2013-06-25 14:47:00,81.0,73.9,30.15,SSE,166,0.0,1.0,79,0.00,,,0.00,Wunderground v.1.15,2013-06-25 18:47:00,
2013-06-25 14:52:00,80.7,73.2,30.14,SSE,166,0.0,1.0,78,0.00,,,0.00,Wunderground v.1.15,2013-06-25 18:52:00,
2013-06-25 14:57:00,80.4,73.3,30.14,SSE,166,0.0,1.0,79,0.00,,,0.00,Wunderground v.1.15,2013-06-25 18:57:00,
2013-06-25 15:02:00,80.0,73.6,30.14,SSE,166,0.0,1.0,81,0.00,,,0.00,Wunderground v.1.15,2013-06-25 19:02:00,
2013-06-25 15:07:00,79.7,72.6,30.14,SSE,165,1.0,4.0,79,0.00,,,0.00,Wunderground v.1.15,2013-06-25 19:07:00,
2013-06-25 15:12:00,79.4,72.3,30.14,SSE,167,1.0,5.0,79,0.00,,,0.00,Wunderground v.1.15,2013-06-25 19:12:00,
2013-06-25 15:17:00,79.5,73.5,30.15,South,169,0.0,5.0,82,0.00,,,0.00,Wunderground v.1.15,2013-06-25 19:17:00,
2013-06-25 15:22:00,79.7,73.0,30.14,South,173,1.0,3.0,80,0.00,,,0.00,Wunderground v.1.15,2013-06-25 19:22:00,
2013-06-25 15:27:00,79.8,72.7,30.14,SSE,148,0.0,3.0,79,0.00,,,0.00,Wunderground v.1.15,2013-06-25 19:27:00,
2013-06-25 15:32:00,79.8,73.1,30.14,SSE,148,2.0,2.0,80,0.00,,,0.00,Wunderground v.1.15,2013-06-25 19:32:00,
2013-06-25 15:37:00,79.9,72.4,30.14,SSE,159,2.0,2.0,78,0.00,,,0.00,Wunderground v.1.15,2013-06-25 19:37:00,
2013-06-25 15:42:00,80.0,72.5,30.14,SSE,158,0.0,1.0,78,0.00,,,0.00,Wunderground v.1.15,2013-06-25 19:42:00,
2013-06-25 15:47:00,80.1,73.4,30.14,SSE,158,0.0,1.0,80,0.00,,,0.00,Wunderground v.1.15,2013-06-25 19:47:00,
2013-06-25 15:52:00,80.0,73.3,30.13,SSE,162,0.0,1.0,80,0.00,,,0.00,Wunderground v.1.15,2013-06-25 19:52:00,
2013-06-25 15:57:00,79.7,74.1,30.13,SSE,162,0.0,1.0,83,0.00,,,0.00,Wunderground v.1.15,2013-06-25 19:57:00,
2013-06-25 16:02:00,79.2,74.3,30.14,SSE,162,0.0,0.0,85,0.00,,,0.00,Wunderground v.1.15,2013-06-25 20:02:00,
2013-06-25 16:07:00,78.5,72.2,30.14,SSE,162,1.0,1.0,81,0.00,,,0.00,Wunderground v.1.15,2013-06-25 20:07:00,
2013-06-25 16:12:00,77.8,71.5,30.14,SSE,162,0.0,1.0,81,0.00,,,0.00,Wunderground v.1.15,2013-06-25 20:12:00,
2013-06-25 16:17:00,77.1,70.5,30.14,SSE,162,0.0,1.0,80,0.00,,,0.00,Wunderground v.1.15,2013-06-25 20:17:00,
2013-06-25 16:22:00,76.5,70.2,30.14,SSE,162,0.0,1.0,81,0.00,,,0.00,Wunderground v.1.15,2013-06-25 20:22:00,
2013-06-25 16:27:00,76.1,70.2,30.14,SSE,162,0.0,1.0,82,0.00,,,0.00,Wunderground v.1.15,2013-06-25 20:27:00,
2013-06-25 16:32:00,75.8,70.3,30.14,SSE,162,0.0,1.0,83,0.00,,,0.00,Wunderground v.1.15,2013-06-25 20:32:00,
2013-06-25 16:37:00,75.5,70.0,30.14,SSE,162,0.0,2.0,83,0.00,,,0.00,Wunderground v.1.15,2013-06-25 20:37:00,
2013-06-25 16:42:00,75.3,69.8,30.15,SSE,162,0.0,0.0,83,0.00,,,0.00,Wunderground v.1.15,2013-06-25 20:42:00,
2013-06-25 16:47:00,75.0,70.2,30.14,SSE,162,0.0,0.0,85,0.00,,,0.00,Wunderground v.1.15,2013-06-25 20:47:00,
2013-06-25 16:52:00,74.8,70.0,30.14,SSE,162,0.0,0.0,85,0.00,,,0.00,Wunderground v.1.15,2013-06-25 20:52:00,
2013-06-25 16:57:00,74.7,70.2,30.14,SSE,162,0.0,0.0,86,0.00,,,0.00,Wunderground v.1.15,2013-06-25 20:57:00,
2013-06-25 17:02:00,74.6,70.1,30.14,SSE,162,0.0,0.0,86,0.00,,,0.00,Wunderground v.1.15,2013-06-25 21:02:00,
2013-06-25 17:07:00,74.4,69.9,30.14,SSE,162,0.0,0.0,86,0.00,,,0.00,Wunderground v.1.15,2013-06-25 21:07:00,
2013-06-25 17:12:00,74.2,69.7,30.14,SSE,162,0.0,0.0,86,0.00,,,0.00,Wunderground v.1.15,2013-06-25 21:12:00,
2013-06-25 17:17:00,74.1,69.6,30.14,SSE,162,0.0,0.0,86,0.00,,,0.00,Wunderground v.1.15,2013-06-25 21:17:00,
2013-06-25 17:22:00,74.0,69.9,30.14,SSE,162,0.0,0.0,87,0.00,,,0.00,Wunderground v.1.15,2013-06-25 21:22:00,
2013-06-25 17:27:00,73.8,70.0,30.14,SSE,162,0.0,0.0,88,0.00,,,0.00,Wunderground v.1.15,2013-06-25 21:27:00,
2013-06-25 17:32:00,73.7,70.3,30.14,SSE,162,0.0,0.0,89,0.00,,,0.00,Wunderground v.1.15,2013-06-25 21:32:00,
2013-06-25 17:37:00,73.5,70.1,30.15,SSE,162,0.0,0.0,89,0.00,,,0.00,Wunderground v.1.15,2013-06-25 21:37:00,
2013-06-25 17:42:00,73.4,70.0,30.14,SSE,162,0.0,0.0,89,0.00,,,0.00,Wunderground v.1.15,2013-06-25 21:42:00,
2013-06-25 17:47:00,73.4,70.0,30.13,SSE,162,0.0,0.0,89,0.00,,,0.00,Wunderground v.1.15,2013-06-25 21:47:00,
2013-06-25 17:52:00,73.3,69.9,30.13,SSE,162,0.0,0.0,89,0.00,,,0.00,Wunderground v.1.15,2013-06-25 21:52:00,
2013-06-25 17:57:00,73.3,69.9,30.13,SSE,162,0.0,0.0,89,0.00,,,0.00,Wunderground v.1.15,2013-06-25 21:57:00,
2013-06-25 18:02:00,73.3,70.2,30.13,SSE,162,0.0,0.0,90,0.00,,,0.00,Wunderground v.1.15,2013-06-25 22:02:00,
2013-06-25 18:07:00,73.3,69.9,30.12,SSE,162,0.0,0.0,89,0.00,,,0.00,Wunderground v.1.15,2013-06-25 22:07:00,
2013-06-25 18:12:00,73.3,70.5,30.11,SSE,162,0.0,0.0,91,0.00,,,0.00,Wunderground v.1.15,2013-06-25 22:12:00,
2013-06-25 18:17:00,73.4,70.9,30.11,SSE,162,0.0,0.0,92,0.00,,,0.00,Wunderground v.1.15,2013-06-25 22:17:00,
2013-06-25 18:22:00,73.5,71.0,30.10,SSE,162,0.0,0.0,92,0.00,,,0.00,Wunderground v.1.15,2013-06-25 22:22:00,
2013-06-25 18:27:00,73.4,70.9,30.10,SSE,162,0.0,0.0,92,0.00,,,0.00,Wunderground v.1.15,2013-06-25 22:27:00,
2013-06-25 18:32:00,73.4,71.3,30.10,SSE,162,0.0,0.0,93,0.00,,,0.00,Wunderground v.1.15,2013-06-25 22:32:00,
2013-06-25 18:37:00,73.4,71.3,30.10,SSE,162,0.0,0.0,93,0.00,,,0.00,Wunderground v.1.15,2013-06-25 22:37:00,
2013-06-25 18:42:00,73.2,70.7,30.10,SSE,162,0.0,0.0,92,0.00,,,0.00,Wunderground v.1.15,2013-06-25 22:42:00,
2013-06-25 18:47:00,73.0,70.5,30.09,SSE,162,0.0,1.0,92,0.00,,,0.00,Wunderground v.1.15,2013-06-25 22:47:00,
2013-06-25 18:52:00,72.8,70.3,30.10,SSE,162,0.0,1.0,92,0.00,,,0.00,Wunderground v.1.15,2013-06-25 22:52:00,
2013-06-25 18:57:00,72.4,69.9,30.11,SSE,162,0.0,1.0,92,0.00,,,0.00,Wunderground v.1.15,2013-06-25 22:57:00,
2013-06-25 19:02:00,72.1,70.0,30.11,SSE,162,1.0,1.0,93,0.00,,,0.00,Wunderground v.1.15,2013-06-25 23:02:00,
2013-06-25 19:07:00,71.9,69.8,30.12,SSE,162,0.0,1.0,93,0.00,,,0.00,Wunderground v.1.15,2013-06-25 23:07:00,
2013-06-25 19:12:00,72.0,69.9,30.12,SSE,162,0.0,0.0,93,0.00,,,0.00,Wunderground v.1.15,2013-06-25 23:12:00,
2013-06-25 19:17:00,72.2,69.7,30.13,SSE,162,0.0,1.0,92,0.00,,,0.00,Wunderground v.1.15,2013-06-25 23:17:00,
2013-06-25 19:22:00,72.4,69.6,30.12,SSE,162,0.0,0.0,91,0.00,,,0.00,Wunderground v.1.15,2013-06-25 23:22:00,
2013-06-25 19:27:00,72.6,69.8,30.13,SSE,162,0.0,0.0,91,0.00,,,0.00,Wunderground v.1.15,2013-06-25 23:27:00,
2013-06-25 19:32:00,72.8,70.3,30.13,SSE,162,0.0,0.0,92,0.00,,,0.00,Wunderground v.1.15,2013-06-25 23:32:00,
2013-06-25 19:37:00,72.9,70.1,30.12,SSE,162,0.0,0.0,91,0.00,,,0.00,Wunderground v.1.15,2013-06-25 23:37:00,
2013-06-25 19:42:00,73.0,69.6,30.13,SSE,162,0.0,1.0,89,0.00,,,0.00,Wunderground v.1.15,2013-06-25 23:42:00,
2013-06-25 19:47:00,73.1,70.0,30.13,SSE,162,0.0,1.0,90,0.00,,,0.00,Wunderground v.1.15,2013-06-25 23:47:00,
2013-06-25 19:52:00,73.1,70.3,30.13,SSE,162,0.0,0.0,91,0.00,,,0.00,Wunderground v.1.15,2013-06-25 23:52:00,
2013-06-25 19:57:00,73.1,70.3,30.13,SSE,162,0.0,0.0,91,0.00,,,0.00,Wunderground v.1.15,2013-06-25 23:57:00,
2013-06-25 20:02:00,73.0,69.9,30.13,SSE,162,0.0,0.0,90,0.00,,,0.00,Wunderground v.1.15,2013-06-26 00:02:00,
2013-06-25 20:07:00,72.9,70.1,30.14,SSE,162,0.0,0.0,91,0.00,,,0.00,Wunderground v.1.15,2013-06-26 00:07:00,
2013-06-25 20:12:00,72.8,70.0,30.14,SSE,162,0.0,0.0,91,0.00,,,0.00,Wunderground v.1.15,2013-06-26 00:12:00,
2013-06-25 20:17:00,72.7,69.9,30.13,SSE,162,0.0,0.0,91,0.00,,,0.00,Wunderground v.1.15,2013-06-26 00:17:00,
2013-06-25 20:22:00,72.5,69.7,30.13,SSE,162,0.0,0.0,91,0.00,,,0.00,Wunderground v.1.15,2013-06-26 00:22:00,
2013-06-25 20:27:00,72.5,69.7,30.13,SSE,162,0.0,0.0,91,0.00,,,0.00,Wunderground v.1.15,2013-06-26 00:27:00,
2013-06-25 20:32:00,72.4,69.9,30.13,SSE,162,0.0,0.0,92,0.00,,,0.00,Wunderground v.1.15,2013-06-26 00:32:00,
2013-06-25 20:37:00,72.3,69.8,30.13,SSE,162,0.0,0.0,92,0.00,,,0.00,Wunderground v.1.15,2013-06-26 00:37:00,
2013-06-25 20:42:00,72.2,69.7,30.13,SSE,162,0.0,0.0,92,0.00,,,0.00,Wunderground v.1.15,2013-06-26 00:42:00,
2013-06-25 20:47:00,72.0,69.5,30.13,SSE,162,0.0,1.0,92,0.00,,,0.00,Wunderground v.1.15,2013-06-26 00:47:00,
2013-06-25 20:52:00,71.8,69.3,30.13,SSE,162,0.0,2.0,92,0.00,,,0.00,Wunderground v.1.15,2013-06-26 00:52:00,
2013-06-25 20:57:00,71.6,69.2,30.13,SSE,162,0.0,2.0,92,0.00,,,0.00,Wunderground v.1.15,2013-06-26 00:57:00,
2013-06-25 21:02:00,71.5,69.4,30.13,SSE,162,0.0,0.0,93,0.00,,,0.00,Wunderground v.1.15,2013-06-26 01:02:00,
2013-06-25 21:07:00,71.3,69.2,30.13,SSE,162,0.0,0.0,93,0.00,,,0.00,Wunderground v.1.15,2013-06-26 01:07:00,
2013-06-25 21:12:00,71.1,69.0,30.13,SSE,162,0.0,0.0,93,0.00,,,0.00,Wunderground v.1.15,2013-06-26 01:12:00,
2013-06-25 21:17:00,71.1,69.3,30.13,SSE,162,0.0,0.0,94,0.00,,,0.00,Wunderground v.1.15,2013-06-26 01:17:00,
2013-06-25 21:22:00,70.8,69.3,30.13,SSE,162,0.0,0.0,95,0.00,,,0.00,Wunderground v.1.15,2013-06-26 01:22:00,
2013-06-25 21:27:00,70.5,69.0,30.13,SSE,162,0.0,0.0,95,0.00,,,0.00,Wunderground v.1.15,2013-06-26 01:27:00,
2013-06-25 21:32:00,70.2,68.7,30.13,SSE,162,0.0,0.0,95,0.00,,,0.00,Wunderground v.1.15,2013-06-26 01:32:00,
2013-06-25 21:37:00,70.1,68.9,30.13,SSE,162,0.0,0.0,96,0.00,,,0.00,Wunderground v.1.15,2013-06-26 01:37:00,
2013-06-25 21:42:00,69.9,68.7,30.13,SSE,162,0.0,0.0,96,0.00,,,0.00,Wunderground v.1.15,2013-06-26 01:42:00,
2013-06-25 21:47:00,69.7,68.5,30.13,SSE,162,0.0,0.0,96,0.00,,,0.00,Wunderground v.1.15,2013-06-26 01:47:00,
2013-06-25 21:52:00,69.6,68.4,30.13,SSE,162,0.0,0.0,96,0.00,,,0.00,Wunderground v.1.15,2013-06-26 01:52:00,
2013-06-25 21:57:00,69.5,68.3,30.13,SSE,162,0.0,0.0,96,0.00,,,0.00,Wunderground v.1.15,2013-06-26 01:57:00,
2013-06-25 22:02:00,69.4,68.2,30.13,SSE,162,0.0,0.0,96,0.00,,,0.00,Wunderground v.1.15,2013-06-26 02:02:00,
2013-06-25 22:07:00,69.3,68.4,30.14,SSE,162,0.0,0.0,97,0.00,,,0.00,Wunderground v.1.15,2013-06-26 02:07:00,
2013-06-25 22:12:00,69.1,68.2,30.14,SSE,162,0.0,0.0,97,0.00,,,0.00,Wunderground v.1.15,2013-06-26 02:12:00,
2013-06-25 22:17:00,68.9,68.3,30.13,SSE,162,0.0,0.0,98,0.00,,,0.00,Wunderground v.1.15,2013-06-26 02:17:00,
2013-06-25 22:22:00,68.7,68.1,30.14,SSE,162,0.0,0.0,98,0.00,,,0.00,Wunderground v.1.15,2013-06-26 02:22:00,
2013-06-25 22:27:00,68.6,67.7,30.14,SSE,162,0.0,0.0,97,0.00,,,0.00,Wunderground v.1.15,2013-06-26 02:27:00,
2013-06-25 22:32:00,68.4,67.8,30.14,SSE,162,0.0,0.0,98,0.00,,,0.00,Wunderground v.1.15,2013-06-26 02:32:00,
2013-06-25 22:37:00,68.3,67.7,30.13,SSE,162,0.0,0.0,98,0.00,,,0.00,Wunderground v.1.15,2013-06-26 02:37:00,
2013-06-25 22:42:00,68.2,67.6,30.13,SSE,162,0.0,0.0,98,0.00,,,0.00,Wunderground v.1.15,2013-06-26 02:42:00,
2013-06-25 22:47:00,68.1,67.5,30.14,SSE,162,0.0,0.0,98,0.00,,,0.00,Wunderground v.1.15,2013-06-26 02:47:00,
2013-06-25 22:52:00,68.0,67.4,30.13,SSE,162,0.0,0.0,98,0.00,,,0.00,Wunderground v.1.15,2013-06-26 02:52:00,
2013-06-25 22:57:00,68.0,67.7,30.13,SSE,162,0.0,1.0,99,0.00,,,0.00,Wunderground v.1.15,2013-06-26 02:57:00,
2013-06-25 23:02:00,67.9,67.6,30.13,SSE,162,0.0,1.0,99,0.00,,,0.00,Wunderground v.1.15,2013-06-26 03:02:00,
2013-06-25 23:07:00,67.8,67.5,30.13,SSE,162,0.0,1.0,99,0.00,,,0.00,Wunderground v.1.15,2013-06-26 03:07:00,
2013-06-25 23:12:00,67.7,67.7,30.13,SSE,162,0.0,0.0,100,0.00,,,0.00,Wunderground v.1.15,2013-06-26 03:12:00,
2013-06-25 23:17:00,67.6,67.6,30.13,SSE,162,0.0,0.0,100,0.00,,,0.00,Wunderground v.1.15,2013-06-26 03:17:00,
2013-06-25 23:22:00,67.4,67.4,30.13,SSE,162,0.0,0.0,100,0.00,,,0.00,Wunderground v.1.15,2013-06-26 03:22:00,
2013-06-25 23:27:00,67.2,67.2,30.13,SSE,162,0.0,0.0,100,0.00,,,0.00,Wunderground v.1.15,2013-06-26 03:27:00,
2013-06-25 23:32:00,67.0,67.0,30.13,SSE,162,0.0,0.0,100,0.00,,,0.00,Wunderground v.1.15,2013-06-26 03:32:00,
2013-06-25 23:37:00,66.9,66.9,30.14,SSE,162,0.0,0.0,100,0.00,,,0.00,Wunderground v.1.15,2013-06-26 03:37:00,
2013-06-25 23:42:00,66.8,66.8,30.13,SSE,162,0.0,0.0,100,0.00,,,0.00,Wunderground v.1.15,2013-06-26 03:42:00,
2013-06-25 23:47:00,66.7,66.7,30.13,SSE,162,0.0,1.0,100,0.00,,,0.00,Wunderground v.1.15,2013-06-26 03:47:00,
2013-06-25 23:52:00,66.6,66.6,30.13,SSE,162,0.0,0.0,100,0.00,,,0.00,Wunderground v.1.15,2013-06-26 03:52:00,
2013-06-25 23:57:00,66.6,66.6,30.13,SSE,162,0.0,0.0,100,0.00,,,0.00,Wunderground v.1.15,2013-06-26 03:57:00,